Time;durP1;ratioP1;P1;durP2;ratioP2;P2;SDS_P1;SDS_P2;PMS_P1;PMS_P2;Temp;Humidity;BMP_temperature;BMP_pressure;BME280_temperature;BME280_humidity;BME280_pressure;Samples;Min_cycle;Max_cycle;Signal;HPM_P1;HPM_P2
2022/06/05 00:01:29;;;;;;;64.28;40.10;;;27.20;99.90;;;;;;5091766;28;20016;-66
2022/06/05 00:04:17;;;;;;;64.65;45.38;;;27.20;99.90;;;;;;5093213;28;20044;-67
2022/06/05 00:07:05;;;;;;;63.92;47.08;;;27.20;99.90;;;;;;5093113;28;20020;-66
2022/06/05 00:09:44;;;;;;;69.50;49.65;;;27.20;99.90;;;;;;5089752;28;20488;-67
2022/06/05 00:12:15;;;;;;;70.63;45.92;;;27.20;99.90;;;;;;5075711;28;20027;-66
2022/06/05 00:14:43;;;;;;;60.80;46.10;;;27.30;99.90;;;;;;5092969;28;20544;-66
2022/06/05 00:17:13;;;;;;;71.78;50.15;;;27.30;99.90;;;;;;5094393;28;20031;-66
2022/06/05 00:19:44;;;;;;;74.25;50.35;;;27.30;99.90;;;;;;5096691;28;20016;-66
2022/06/05 00:22:11;;;;;;;71.40;55.05;;;27.30;99.90;;;;;;5096526;28;20020;-66
2022/06/05 00:24:38;;;;;;;73.45;50.55;;;27.40;99.90;;;;;;5096641;28;20023;-66
2022/06/05 00:27:14;;;;;;;74.97;54.47;;;27.40;99.90;;;;;;5095966;28;20020;-67
2022/06/05 00:29:50;;;;;;;93.65;63.78;;;27.40;99.90;;;;;;5096582;28;20052;-67
2022/06/05 00:32:40;;;;;;;83.93;60.25;;;27.50;99.90;;;;;;5096642;28;20020;-67
2022/06/05 00:35:09;;;;;;;63.83;47.92;;;27.60;99.90;;;;;;5076173;28;20158;-67
2022/06/05 00:38:01;;;;;;;69.97;46.85;;;27.60;99.90;;;;;;5076042;28;20033;-66
2022/06/05 00:40:34;;;;;;;62.15;46.90;;;27.60;99.90;;;;;;5076099;28;20515;-67
2022/06/05 00:43:04;;;;;;;71.47;51.13;;;27.70;99.90;;;;;;5076135;28;20381;-66
2022/06/05 00:45:32;;;;;;;60.58;44.42;;;27.70;99.90;;;;;;5079503;28;20020;-67
2022/06/05 00:48:00;;;;;;;60.20;43.33;;;27.70;99.90;;;;;;5096121;28;20070;-68
2022/06/05 00:50:29;;;;;;;58.53;42.00;;;27.80;99.90;;;;;;5096162;28;20031;-67
2022/06/05 00:52:59;;;;;;;50.55;35.90;;;27.80;99.90;;;;;;5095998;28;20477;-68
2022/06/05 00:55:30;;;;;;;54.42;36.78;;;27.80;99.90;;;;;;5095234;28;20036;-67
2022/06/05 00:57:57;;;;;;;46.83;32.35;;;27.80;99.90;;;;;;5095787;28;20153;-67
2022/06/05 01:00:33;;;;;;;44.15;30.60;;;27.80;99.90;;;;;;5093466;28;20527;-66
2022/06/05 01:03:03;;;;;;;38.03;29.23;;;27.90;99.90;;;;;;5075721;28;20032;-67
2022/06/05 01:05:30;;;;;;;38.05;27.55;;;27.90;99.90;;;;;;5075591;28;20027;-67
2022/06/05 01:07:57;;;;;;;43.55;28.85;;;28.00;99.90;;;;;;5075657;28;20074;-67
2022/06/05 01:10:36;;;;;;;48.85;30.92;;;28.00;99.90;;;;;;5075599;28;20488;-65
2022/06/05 01:13:40;;;;;;;36.90;27.88;;;28.10;99.90;;;;;;5075457;28;20035;-67
2022/06/05 01:16:33;;;;;;;43.20;28.63;;;28.20;99.90;;;;;;5083496;28;20028;-66
2022/06/05 01:19:38;;;;;;;32.97;23.20;;;28.40;99.90;;;;;;5074903;28;20045;-66
2022/06/05 01:22:17;;;;;;;27.95;19.17;;;28.40;99.90;;;;;;5094774;28;20040;-67
2022/06/05 01:25:13;;;;;;;28.35;20.20;;;28.40;99.90;;;;;;5095751;28;20081;-67
2022/06/05 01:27:44;;;;;;;28.17;18.35;;;28.50;99.90;;;;;;5092017;28;20065;-67
2022/06/05 01:30:16;;;;;;;33.20;18.15;;;28.60;99.90;;;;;;5088745;28;20024;-66
2022/06/05 01:32:55;;;;;;;29.67;19.48;;;28.60;99.90;;;;;;5089838;28;20028;-67
2022/06/05 01:35:38;;;;;;;23.52;16.42;;;28.60;99.90;;;;;;5090661;28;20024;-68
2022/06/05 01:38:19;;;;;;;21.35;15.82;;;28.70;99.90;;;;;;5086708;28;20384;-66
2022/06/05 01:40:53;;;;;;;21.70;17.70;;;28.70;99.90;;;;;;5090705;28;20028;-67
2022/06/05 01:43:25;;;;;;;39.40;22.92;;;28.80;99.90;;;;;;5090409;28;20020;-66
2022/06/05 01:45:56;;;;;;;25.65;17.08;;;28.80;99.90;;;;;;5084616;28;20012;-67
2022/06/05 01:48:36;;;;;;;25.60;17.48;;;28.90;99.90;;;;;;5084612;28;20083;-65
2022/06/05 01:51:07;;;;;;;20.67;15.40;;;28.90;99.90;;;;;;5079690;28;20240;-66
2022/06/05 01:53:41;;;;;;;26.35;18.08;;;29.00;99.90;;;;;;5082984;28;20107;-67
2022/06/05 01:56:30;;;;;;;24.40;17.52;;;29.00;99.90;;;;;;5091658;28;20028;-66
2022/06/05 01:59:25;;;;;;;29.40;17.52;;;29.00;99.90;;;;;;5083213;28;20125;-65
2022/06/05 02:01:56;;;;;;;29.27;19.60;;;29.10;99.90;;;;;;5081134;28;20115;-72
2022/06/05 02:04:40;;;;;;;30.70;19.63;;;29.10;99.90;;;;;;5091824;28;20017;-73
2022/06/05 02:07:35;;;;;;;36.15;23.40;;;29.20;99.90;;;;;;5088557;28;20115;-73
2022/06/05 02:10:07;;;;;;;26.05;17.58;;;29.30;99.90;;;;;;5086438;28;20036;-74
2022/06/05 02:12:34;;;;;;;;;;;29.40;99.90;;;;;;5082255;28;20114;-73
2022/06/05 02:15:02;;;;;;;28.92;18.63;;;29.40;99.90;;;;;;5084766;28;19911;-74
2022/06/05 02:17:31;;;;;;;28.08;19.33;;;29.60;99.90;;;;;;5086502;28;20028;-74
2022/06/05 02:20:01;;;;;;;27.52;17.48;;;29.70;99.90;;;;;;5086896;28;20462;-70
2022/06/05 02:22:36;;;;;;;32.67;20.90;;;29.80;99.90;;;;;;5088370;28;20020;-74
2022/06/05 02:25:04;;;;;;;39.75;27.73;;;29.90;99.90;;;;;;5089883;28;20098;-66
2022/06/05 02:27:31;;;;;;;36.90;22.80;;;29.90;99.90;;;;;;5093761;28;20047;-66
2022/06/05 02:29:58;;;;;;;44.45;28.17;;;29.90;99.90;;;;;;5090103;28;20024;-67
2022/06/05 02:33:09;;;;;;;31.17;22.10;;;30.00;99.90;;;;;;5093572;28;20284;-67
2022/06/05 02:35:45;;;;;;;149.13;102.57;;;29.90;99.90;;;;;;5086624;28;20498;-67
2022/06/05 02:38:43;;;;;;;122.45;75.75;;;29.90;99.90;;;;;;5093206;28;20020;-67
2022/06/05 02:41:38;;;;;;;43.40;30.38;;;29.80;99.90;;;;;;5090313;28;20382;-67
2022/06/05 02:44:30;;;;;;;74.38;51.65;;;29.80;99.90;;;;;;5084289;28;20024;-66
2022/06/05 02:47:33;;;;;;;39.20;26.48;;;29.90;99.90;;;;;;5074228;28;20024;-70
2022/06/05 02:50:30;;;;;;;30.23;19.48;;;30.00;99.90;;;;;;5064420;28;20111;-70
2022/06/05 02:53:03;;;;;;;50.20;34.17;;;30.10;99.90;;;;;;5063031;28;20661;-71
2022/06/05 02:55:30;;;;;;;53.42;36.15;;;30.10;99.90;;;;;;5080625;28;20035;-70
2022/06/05 02:57:57;;;;;;;35.03;23.58;;;30.20;99.90;;;;;;5081703;28;20024;-71
2022/06/05 03:00:27;;;;;;;37.78;24.90;;;30.10;99.90;;;;;;5087416;28;20024;-71
2022/06/05 03:05:40;;;;;;;34.58;23.35;;;30.10;99.90;;;;;;5091192;28;20027;-66
2022/06/05 03:08:10;;;;;;;32.75;21.30;;;30.00;99.90;;;;;;5092010;28;20020;-68
2022/06/05 03:10:37;;;;;;;45.15;24.75;;;30.00;99.90;;;;;;5087264;28;20029;-70
2022/06/05 03:13:04;;;;;;;39.30;24.85;;;30.00;99.90;;;;;;5080518;28;20016;-70
2022/06/05 03:15:31;;;;;;;39.58;24.58;;;30.10;99.90;;;;;;5075512;28;20107;-71
2022/06/05 03:17:58;;;;;;;46.35;25.15;;;30.00;99.90;;;;;;5077368;28;20743;-66
2022/06/05 03:20:25;;;;;;;33.85;22.23;;;30.10;99.90;;;;;;5087387;28;20020;-68
2022/06/05 03:22:52;;;;;;;39.67;24.17;;;30.10;99.90;;;;;;5086488;28;20012;-69
2022/06/05 03:25:24;;;;;;;26.45;18.65;;;30.10;99.90;;;;;;5087367;28;20087;-68
2022/06/05 03:27:51;;;;;;;87.55;51.75;;;30.30;99.90;;;;;;5089305;28;20035;-72
2022/06/05 03:30:18;;;;;;;42.17;30.08;;;30.30;99.90;;;;;;5089110;28;20031;-68
2022/06/05 03:32:46;;;;;;;31.33;23.23;;;30.40;99.90;;;;;;5090641;28;20028;-67
2022/06/05 03:35:15;;;;;;;26.33;19.60;;;30.40;99.90;;;;;;5088540;28;20032;-67
2022/06/05 03:37:42;;;;;;;33.25;22.73;;;30.40;99.90;;;;;;5090534;28;20027;-67
2022/06/05 03:40:14;;;;;;;36.97;22.92;;;30.50;99.90;;;;;;5091511;28;20473;-69
2022/06/05 03:42:42;;;;;;;35.38;22.90;;;30.70;99.90;;;;;;5092078;28;20473;-69
2022/06/05 03:45:14;;;;;;;33.83;21.60;;;30.80;99.90;;;;;;5092080;28;20350;-68
2022/06/05 03:47:42;;;;;;;46.35;32.22;;;30.80;99.90;;;;;;5073894;28;20131;-68
2022/06/05 03:50:10;;;;;;;37.28;24.15;;;30.80;99.90;;;;;;5090989;28;20032;-69
2022/06/05 03:52:37;;;;;;;27.17;20.20;;;31.00;99.90;;;;;;5092893;28;20020;-69
2022/06/05 03:55:05;;;;;;;29.55;21.58;;;31.00;99.90;;;;;;5093217;28;20028;-70
2022/06/05 03:57:31;;;;;;;22.20;18.30;;;31.00;99.90;;;;;;5089192;28;20485;-66
2022/06/05 03:59:58;;;;;;;18.73;16.67;;;30.80;99.90;;;;;;5088970;28;20103;-64
2022/06/05 04:02:25;;;;;;;18.85;15.98;;;31.00;99.90;;;;;;5088418;28;20122;-65
2022/06/05 04:04:52;;;;;;;24.35;16.83;;;31.10;99.90;;;;;;5088016;28;20043;-65
2022/06/05 04:07:20;;;;;;;22.77;19.58;;;31.20;99.90;;;;;;5088907;28;20384;-65
2022/06/05 04:09:46;;;;;;;156.63;92.43;;;31.20;99.90;;;;;;5089268;28;20024;-65
2022/06/05 04:12:13;;;;;;;46.17;32.80;;;31.30;99.90;;;;;;5085432;28;20020;-65
2022/06/05 04:14:40;;;;;;;55.08;33.72;;;31.40;99.90;;;;;;5087470;28;20056;-65
2022/06/05 04:17:06;;;;;;;29.70;21.42;;;31.50;99.90;;;;;;5087139;28;20080;-65
2022/06/05 04:19:33;;;;;;;28.92;22.42;;;31.50;99.90;;;;;;5084549;28;20016;-67
2022/06/05 04:22:00;;;;;;;28.88;19.77;;;31.50;99.90;;;;;;5085637;28;20012;-65
2022/06/05 04:24:26;;;;;;;50.80;34.65;;;31.40;99.90;;;;;;5085207;28;20492;-65
2022/06/05 04:26:53;;;;;;;24.92;19.27;;;31.60;99.90;;;;;;5084538;28;20032;-65
2022/06/05 04:29:20;;;;;;;24.40;17.13;;;31.60;99.90;;;;;;5095901;28;20027;-65
2022/06/05 04:31:48;;;;;;;24.90;18.23;;;31.70;99.90;;;;;;5094139;28;20491;-65
2022/06/05 04:34:18;;;;;;;23.15;18.58;;;31.80;99.90;;;;;;5093031;28;20051;-65
2022/06/05 04:36:46;;;;;;;27.75;19.27;;;31.80;99.90;;;;;;5095437;28;20090;-65
2022/06/05 04:39:13;;;;;;;21.85;17.05;;;31.80;99.90;;;;;;5095415;28;20085;-65
2022/06/05 04:41:41;;;;;;;19.00;16.60;;;31.80;99.90;;;;;;5093799;28;20077;-65
2022/06/05 04:44:11;;;;;;;25.90;18.27;;;31.90;99.90;;;;;;5095207;28;20032;-65
2022/06/05 04:46:38;;;;;;;23.00;15.48;;;31.90;99.90;;;;;;5093353;28;20202;-65
2022/06/05 04:49:08;;;;;;;20.42;17.17;;;31.80;99.90;;;;;;5092138;28;20205;-65
2022/06/05 04:51:36;;;;;;;20.55;15.68;;;31.80;99.90;;;;;;5092151;28;20034;-65
2022/06/05 04:54:05;;;;;;;39.08;26.00;;;31.80;99.90;;;;;;5095771;28;20377;-65
2022/06/05 04:56:32;;;;;;;36.28;24.52;;;31.90;99.90;;;;;;5075089;28;20061;-65
2022/06/05 04:59:00;;;;;;;28.27;17.88;;;32.00;99.90;;;;;;5093342;28;20016;-68
2022/06/05 05:01:30;;;;;;;33.10;19.48;;;31.90;99.90;;;;;;5093241;28;20019;-68
2022/06/05 05:03:59;;;;;;;29.20;18.90;;;31.90;99.90;;;;;;5090916;28;20048;-70
2022/06/05 05:06:27;;;;;;;24.85;19.48;;;31.80;99.90;;;;;;5093533;28;20811;-68
2022/06/05 05:08:54;;;;;;;28.42;18.45;;;31.80;99.90;;;;;;5094577;28;20204;-69
2022/06/05 05:11:21;;;;;;;26.15;19.83;;;31.90;99.90;;;;;;5096441;28;20042;-69
2022/06/05 05:13:48;;;;;;;28.85;18.75;;;32.00;99.80;;;;;;5095376;28;20032;-67
2022/06/05 05:16:15;;;;;;;22.13;18.05;;;32.00;99.50;;;;;;5075877;28;20030;-67
2022/06/05 05:18:42;;;;;;;23.48;17.55;;;32.00;99.80;;;;;;5095576;28;20050;-68
2022/06/05 05:21:14;;;;;;;19.77;16.08;;;32.10;99.70;;;;;;5093807;28;20182;-67
2022/06/05 05:23:42;;;;;;;17.83;14.45;;;32.30;99.30;;;;;;5094588;28;20022;-70
2022/06/05 05:26:32;;;;;;;23.67;16.13;;;32.40;98.30;;;;;;5093810;28;20118;-68
2022/06/05 05:29:00;;;;;;;21.67;15.70;;;32.50;97.70;;;;;;5092234;28;20032;-67
2022/06/05 05:31:32;;;;;;;27.83;17.92;;;32.60;97.10;;;;;;5090677;28;20028;-66
2022/06/05 05:34:00;;;;;;;27.35;17.48;;;32.70;98.10;;;;;;5095255;28;20089;-69
2022/06/05 05:36:27;;;;;;;16.17;13.82;;;32.60;97.50;;;;;;5095737;28;20507;-67
2022/06/05 05:44:26;;;;;;;31.85;22.98;;;32.40;94.60;;;;;;5091887;28;20036;-68
2022/06/05 05:46:54;;;;;;;22.92;15.43;;;32.40;95.70;;;;;;5088834;28;20541;-68
2022/06/05 05:49:20;;;;;;;18.70;15.50;;;32.40;96.30;;;;;;5096027;28;20081;-68
2022/06/05 05:51:47;;;;;;;23.85;17.80;;;32.40;96.10;;;;;;5093506;28;20530;-68
2022/06/05 05:54:14;;;;;;;47.35;30.02;;;32.50;97.10;;;;;;5093216;28;20031;-69
2022/06/05 05:56:41;;;;;;;28.55;22.58;;;32.40;97.10;;;;;;5093531;28;20117;-69
2022/06/05 05:59:08;;;;;;;47.90;32.08;;;32.40;97.40;;;;;;5089904;28;20284;-69
2022/06/05 06:01:35;;;;;;;127.53;81.63;;;32.40;97.40;;;;;;5094540;28;20082;-67
2022/06/05 06:04:02;;;;;;;52.63;32.00;;;32.40;95.90;;;;;;5095030;28;20107;-66
2022/06/05 06:06:33;;;;;;;190.00;100.88;;;32.40;95.40;;;;;;5087421;28;20020;-69
2022/06/05 06:09:00;;;;;;;68.18;40.58;;;32.60;95.20;;;;;;5084089;28;20024;-68
2022/06/05 06:11:27;;;;;;;27.90;17.67;;;32.50;96.20;;;;;;5094121;28;20025;-68
2022/06/05 06:13:54;;;;;;;21.40;16.58;;;32.60;96.20;;;;;;5092985;28;20550;-67
2022/06/05 06:16:21;;;;;;;24.77;19.10;;;32.60;95.50;;;;;;5093842;28;20028;-65
2022/06/05 06:18:48;;;;;;;35.55;21.95;;;32.60;95.60;;;;;;5093553;28;20102;-72
2022/06/05 06:21:14;;;;;;;22.40;18.38;;;32.70;95.80;;;;;;5083926;28;20016;-66
2022/06/05 06:23:41;;;;;;;65.63;48.50;;;32.60;95.50;;;;;;5083755;28;20024;-67
2022/06/05 06:26:09;;;;;;;71.55;51.63;;;32.60;95.40;;;;;;5090945;28;20408;-67
2022/06/05 06:28:36;;;;;;;121.00;95.40;;;32.60;95.90;;;;;;5088389;28;20039;-67
2022/06/05 06:31:11;;;;;;;28.58;21.35;;;32.60;95.80;;;;;;5087542;28;20024;-69
2022/06/05 06:33:39;;;;;;;28.63;21.90;;;32.60;95.50;;;;;;5090717;28;20035;-64
2022/06/05 06:36:09;;;;;;;27.80;23.67;;;32.60;95.30;;;;;;5079528;28;20024;-64
2022/06/05 06:38:36;;;;;;;74.55;53.17;;;32.60;96.10;;;;;;5086831;28;20095;-69
2022/06/05 06:41:12;;;;;;;25.48;19.98;;;32.60;95.70;;;;;;5092914;28;20464;-70
2022/06/05 06:43:39;;;;;;;20.10;16.00;;;32.60;95.50;;;;;;5087761;28;20468;-68
2022/06/05 06:46:07;;;;;;;18.17;14.95;;;32.60;94.60;;;;;;5084499;28;20445;-69
2022/06/05 06:48:35;;;;;;;31.33;20.63;;;32.60;94.70;;;;;;5083242;28;20044;-70
2022/06/05 06:51:02;;;;;;;18.08;16.08;;;32.60;94.30;;;;;;5089286;28;20024;-70
2022/06/05 06:53:30;;;;;;;47.17;35.67;;;32.60;94.80;;;;;;5093227;28;20020;-71
2022/06/05 06:55:58;;;;;;;74.32;55.80;;;32.60;94.30;;;;;;5085961;28;20077;-71
2022/06/05 06:58:25;;;;;;;25.40;21.17;;;32.60;94.80;;;;;;5092696;28;20366;-72
2022/06/05 07:00:52;;;;;;;37.25;26.75;;;32.70;94.20;;;;;;5091467;28;20492;-67
2022/06/05 07:03:18;;;;;;;28.60;22.00;;;32.70;94.00;;;;;;5086628;28;20023;-67
2022/06/05 07:05:45;;;;;;;28.10;19.60;;;32.70;94.60;;;;;;5088500;28;20024;-66
2022/06/05 07:08:12;;;;;;;25.80;17.90;;;32.80;94.60;;;;;;5088649;28;20016;-68
2022/06/05 07:10:38;;;;;;;20.48;17.50;;;32.80;94.10;;;;;;5085356;28;20414;-66
2022/06/05 07:13:06;;;;;;;41.42;30.00;;;32.90;94.50;;;;;;5085808;28;20028;-67
2022/06/05 07:15:35;;;;;;;39.90;26.42;;;32.90;93.70;;;;;;5088108;28;20028;-69
2022/06/05 07:18:04;;;;;;;36.25;24.35;;;32.90;93.70;;;;;;5088333;28;20492;-66
2022/06/05 07:20:40;;;;;;;27.95;22.27;;;32.90;92.90;;;;;;5083714;28;20098;-69
2022/06/05 07:23:07;;;;;;;29.45;19.42;;;33.00;92.60;;;;;;5090652;28;20020;-67
2022/06/05 07:25:35;;;;;;;20.70;17.15;;;32.90;92.40;;;;;;5087976;28;20031;-68
2022/06/05 07:28:02;;;;;;;24.25;18.98;;;32.80;92.90;;;;;;5085537;28;20028;-69
2022/06/05 07:30:29;;;;;;;27.23;22.45;;;32.80;92.90;;;;;;5082737;28;20081;-67
2022/06/05 07:32:56;;;;;;;25.77;19.92;;;32.80;93.00;;;;;;5082450;28;20126;-70
2022/06/05 07:35:23;;;;;;;31.95;23.58;;;32.90;92.50;;;;;;5087580;28;20024;-68
2022/06/05 07:37:50;;;;;;;30.13;20.90;;;33.00;92.20;;;;;;5091646;28;20099;-68
2022/06/05 07:40:17;;;;;;;29.95;23.08;;;33.00;92.60;;;;;;5092757;28;20024;-67
2022/06/05 07:42:45;;;;;;;22.83;16.98;;;33.00;92.70;;;;;;5092273;28;20028;-67
2022/06/05 07:45:14;;;;;;;23.95;17.52;;;32.90;92.50;;;;;;5091490;28;20063;-67
2022/06/05 07:47:46;;;;;;;24.80;19.65;;;32.80;92.60;;;;;;5092246;28;20067;-68
2022/06/05 07:50:14;;;;;;;23.35;18.77;;;32.80;92.70;;;;;;5093088;28;20054;-68
2022/06/05 07:55:26;;;;;;;45.78;31.55;;;32.60;93.20;;;;;;5092196;28;20043;-68
2022/06/05 07:57:53;;;;;;;46.50;30.00;;;32.50;93.10;;;;;;5091563;28;20035;-68
2022/06/05 08:00:21;;;;;;;18.95;15.93;;;32.50;92.80;;;;;;5092216;28;20059;-63
2022/06/05 08:02:48;;;;;;;19.67;14.95;;;32.60;92.60;;;;;;5090126;28;20096;-63
2022/06/05 08:05:15;;;;;;;26.88;19.25;;;32.70;91.90;;;;;;5090570;28;20047;-63
2022/06/05 08:07:41;;;;;;;33.53;21.23;;;32.80;91.20;;;;;;5088115;28;20024;-63
2022/06/05 08:10:08;;;;;;;25.58;18.20;;;32.80;92.00;;;;;;5086135;28;20028;-63
2022/06/05 08:12:36;;;;;;;23.25;15.88;;;32.90;90.40;;;;;;5090568;28;20027;-63
2022/06/05 08:15:09;;;;;;;30.90;20.83;;;33.10;90.20;;;;;;5089850;28;20028;-63
2022/06/05 08:17:37;;;;;;;19.85;15.70;;;33.20;90.10;;;;;;5089962;28;20030;-63
2022/06/05 08:20:06;;;;;;;15.70;13.77;;;33.30;91.10;;;;;;5091078;28;20018;-63
2022/06/05 08:22:33;;;;;;;19.02;15.40;;;33.30;90.10;;;;;;5089502;28;20090;-62
2022/06/05 08:25:00;;;;;;;18.08;14.55;;;33.40;89.50;;;;;;5089534;28;20465;-64
2022/06/05 08:27:28;;;;;;;19.42;15.25;;;33.40;90.20;;;;;;5088156;28;20031;-63
2022/06/05 08:29:56;;;;;;;18.00;14.75;;;33.50;90.10;;;;;;5091469;28;20047;-62
2022/06/05 08:32:26;;;;;;;21.17;16.10;;;33.40;90.20;;;;;;5087856;28;20036;-64
2022/06/05 08:34:52;;;;;;;16.02;13.95;;;33.20;90.60;;;;;;5090089;28;20109;-64
2022/06/05 08:43:17;;;;;;;20.23;15.02;;;33.00;90.90;;;;;;5093087;28;20031;-62
2022/06/05 08:46:01;;;;;;;19.15;14.00;;;33.10;90.00;;;;;;5088380;28;20027;-62
2022/06/05 08:48:39;;;;;;;18.73;14.15;;;33.10;91.10;;;;;;5091214;28;20059;-62
2022/06/05 08:51:48;;;;;;;20.80;14.95;;;33.20;90.90;;;;;;5092528;28;20031;-63
2022/06/05 08:54:33;;;;;;;18.55;13.95;;;33.20;89.20;;;;;;5089316;28;20091;-62
2022/06/05 08:57:18;;;;;;;19.80;16.33;;;33.00;89.60;;;;;;5088075;28;20031;-63
2022/06/05 09:00:02;;;;;;;21.35;15.93;;;33.00;90.10;;;;;;5087946;28;20393;-64
2022/06/05 09:03:00;;;;;;;21.55;15.70;;;32.90;89.50;;;;;;5090767;28;20031;-62
2022/06/05 09:05:56;;;;;;;27.70;18.73;;;32.80;90.40;;;;;;5081327;28;20024;-62
2022/06/05 09:08:30;;;;;;;24.98;18.45;;;32.80;90.40;;;;;;5070853;28;20427;-63
2022/06/05 09:11:05;;;;;;;21.67;17.73;;;32.80;90.50;;;;;;5082224;28;20025;-62
2022/06/05 09:13:52;;;;;;;23.65;16.88;;;32.70;90.50;;;;;;5075886;28;20029;-63
2022/06/05 09:16:33;;;;;;;24.90;18.52;;;32.60;90.70;;;;;;5082108;28;20020;-61
2022/06/05 09:19:02;;;;;;;57.40;43.22;;;32.60;91.70;;;;;;5088027;28;20381;-62
2022/06/05 09:21:48;;;;;;;25.80;21.48;;;32.50;91.30;;;;;;5087155;28;20095;-63
2022/06/05 09:24:24;;;;;;;28.50;20.67;;;32.40;91.30;;;;;;5086630;28;20396;-62
2022/06/05 09:27:01;;;;;;;30.88;22.77;;;32.40;91.40;;;;;;5085744;28;20107;-62
2022/06/05 09:29:45;;;;;;;50.13;38.75;;;32.40;91.60;;;;;;5084024;28;20104;-64
2022/06/05 09:32:26;;;;;;;28.83;23.77;;;32.40;91.70;;;;;;5084184;28;20028;-63
2022/06/05 09:34:55;;;;;;;33.00;24.15;;;32.20;91.30;;;;;;5086908;28;20035;-64
2022/06/05 09:37:31;;;;;;;33.50;25.67;;;32.20;91.60;;;;;;5086439;28;21083;-60
2022/06/05 09:40:04;;;;;;;43.95;26.42;;;32.10;91.80;;;;;;5084421;28;20023;-62
2022/06/05 09:42:40;;;;;;;28.88;23.02;;;32.00;92.00;;;;;;5092532;28;20098;-61
2022/06/05 09:45:28;;;;;;;48.50;33.97;;;32.00;91.60;;;;;;5092786;28;20430;-62
2022/06/05 09:48:20;;;;;;;34.75;23.45;;;31.90;91.60;;;;;;5094984;28;20051;-63
2022/06/05 09:50:47;;;;;;;40.00;26.67;;;31.80;91.60;;;;;;5091573;28;20040;-61
2022/06/05 09:53:28;;;;;;;36.33;21.35;;;31.80;92.20;;;;;;5094938;28;20024;-62
2022/06/05 09:56:27;;;;;;;35.15;22.40;;;31.80;92.00;;;;;;5093140;28;20032;-62
2022/06/05 09:59:12;;;;;;;41.70;24.58;;;31.80;92.00;;;;;;5070647;28;20048;-62
2022/06/05 10:02:08;;;;;;;35.60;24.25;;;31.80;91.90;;;;;;5085380;28;20028;-62
2022/06/05 10:04:36;;;;;;;59.58;39.72;;;31.70;91.90;;;;;;5076635;28;20040;-62
2022/06/05 10:07:13;;;;;;;43.35;26.95;;;31.70;92.10;;;;;;5075876;28;20477;-62
2022/06/05 10:09:45;;;;;;;33.28;24.45;;;31.80;91.90;;;;;;5089552;28;20047;-61
2022/06/05 10:12:24;;;;;;;36.13;23.40;;;31.70;91.90;;;;;;5094560;28;20063;-62
2022/06/05 10:15:19;;;;;;;27.33;19.95;;;31.80;91.80;;;;;;5094617;28;20028;-62
2022/06/05 10:17:58;;;;;;;51.90;23.45;;;31.60;91.60;;;;;;5074087;28;20059;-61
2022/06/05 10:20:36;;;;;;;41.47;30.05;;;31.50;91.90;;;;;;5077568;28;20020;-62
2022/06/05 10:23:37;;;;;;;35.58;26.00;;;31.50;91.80;;;;;;5084876;28;20021;-61
2022/06/05 10:26:29;;;;;;;57.53;40.20;;;31.50;92.30;;;;;;5057476;28;20032;-61
2022/06/05 10:29:08;;;;;;;;;;;31.50;92.60;;;;;;5084742;28;20071;-63
2022/06/05 10:31:36;;;;;;;105.25;73.78;;;31.50;92.00;;;;;;5078597;28;19915;-61
2022/06/05 10:34:30;;;;;;;89.10;62.63;;;31.40;91.90;;;;;;5086128;28;20472;-62
2022/06/05 10:37:20;;;;;;;56.78;37.85;;;31.40;91.90;;;;;;5083432;28;20028;-62
2022/06/05 10:40:05;;;;;;;62.00;34.38;;;31.40;92.40;;;;;;5083311;28;20389;-60
2022/06/05 10:42:39;;;;;;;42.10;31.65;;;31.40;92.40;;;;;;5083180;28;20032;-60
2022/06/05 10:45:26;;;;;;;36.38;27.38;;;31.30;92.50;;;;;;5081316;28;20032;-61
2022/06/05 10:48:23;;;;;;;32.83;25.67;;;31.30;93.10;;;;;;5075093;28;20052;-62
2022/06/05 10:51:15;;;;;;;46.05;30.70;;;31.20;93.70;;;;;;5086357;28;20435;-61
2022/06/05 10:53:48;;;;;;;36.60;29.33;;;31.20;93.80;;;;;;5086046;28;20028;-60
2022/06/05 10:56:59;;;;;;;45.05;33.75;;;31.10;93.80;;;;;;5083768;28;20020;-62
2022/06/05 10:59:38;;;;;;;59.90;39.35;;;31.10;94.10;;;;;;5085272;28;20055;-63
2022/06/05 11:02:23;;;;;;;54.17;36.78;;;31.10;94.00;;;;;;5078407;28;20025;-62
2022/06/05 11:05:08;;;;;;;52.67;37.75;;;31.00;94.30;;;;;;5087026;28;20032;-60
2022/06/05 11:07:59;;;;;;;61.17;42.78;;;31.00;94.40;;;;;;5089055;28;20020;-60
2022/06/05 11:14:01;;;;;;;63.28;45.40;;;31.00;94.80;;;;;;5089584;28;20034;-62
2022/06/05 11:16:49;;;;;;;42.42;31.63;;;31.00;95.00;;;;;;5078440;28;20480;-61
2022/06/05 11:19:48;;;;;;;46.85;32.80;;;31.00;94.60;;;;;;5093543;28;20032;-61
2022/06/05 11:22:17;;;;;;;59.03;42.53;;;31.10;95.50;;;;;;5085535;28;20021;-61
2022/06/05 11:24:58;;;;;;;67.65;43.50;;;31.10;94.60;;;;;;5090924;28;20253;-60
2022/06/05 11:27:28;;;;;;;77.13;49.17;;;30.90;94.80;;;;;;5091767;28;20073;-62
2022/06/05 11:30:16;;;;;;;65.57;44.50;;;30.80;95.00;;;;;;5092668;28;20029;-62
2022/06/05 11:32:52;;;;;;;69.72;46.65;;;30.80;96.00;;;;;;5090928;28;20028;-61
2022/06/05 11:35:27;;;;;;;190.85;138.25;;;30.90;95.50;;;;;;5088619;28;20020;-60
2022/06/05 11:38:05;;;;;;;132.35;93.93;;;30.90;96.10;;;;;;5082906;28;20031;-61
2022/06/05 11:40:56;;;;;;;89.38;60.35;;;31.00;95.70;;;;;;5090275;28;20032;-62
2022/06/05 11:43:38;;;;;;;64.00;43.17;;;30.80;95.40;;;;;;5089063;28;20020;-63
2022/06/05 11:46:23;;;;;;;66.18;46.90;;;30.80;95.40;;;;;;5089750;28;20428;-63
2022/06/05 11:48:57;;;;;;;96.50;69.70;;;30.80;95.20;;;;;;5088336;28;20413;-63
2022/06/05 11:51:35;;;;;;;92.65;61.92;;;30.80;95.60;;;;;;5092786;28;20506;-60
2022/06/05 11:54:29;;;;;;;84.43;55.97;;;30.80;96.50;;;;;;5091759;28;20350;-63
2022/06/05 11:57:22;;;;;;;75.30;50.58;;;30.70;96.20;;;;;;5086868;28;20059;-62
2022/06/05 12:00:03;;;;;;;91.30;58.70;;;30.70;95.90;;;;;;5090413;28;20044;-60
2022/06/05 12:02:56;;;;;;;95.82;59.80;;;30.70;96.60;;;;;;5091557;28;20473;-63
2022/06/05 12:06:01;;;;;;;104.93;63.40;;;30.60;97.20;;;;;;5076268;28;20439;-61
2022/06/05 12:08:37;;;;;;;116.40;69.80;;;30.50;97.40;;;;;;4987219;28;20609;-61
2022/06/05 12:11:09;;;;;;;111.57;70.40;;;30.40;97.90;;;;;;4987187;28;20065;-60
2022/06/05 12:13:50;;;;;;;103.53;64.78;;;30.40;98.20;;;;;;5048435;28;20401;-60
2022/06/05 12:16:52;;;;;;;84.65;56.50;;;30.40;98.90;;;;;;5095441;28;20384;-61
2022/06/05 12:19:32;;;;;;;71.70;47.97;;;30.40;99.40;;;;;;5075283;28;20024;-62
2022/06/05 12:22:11;;;;;;;77.95;49.50;;;30.30;99.40;;;;;;5095615;28;20028;-62
2022/06/05 12:24:52;;;;;;;81.72;47.58;;;30.40;99.90;;;;;;5095009;28;20027;-61
2022/06/05 12:27:20;;;;;;;74.22;47.20;;;30.30;99.90;;;;;;5093055;28;20031;-62
2022/06/05 12:30:07;;;;;;;62.30;42.00;;;30.30;99.90;;;;;;5094218;28;20059;-61
2022/06/05 12:32:49;;;;;;;60.35;41.88;;;30.20;99.90;;;;;;5091760;28;20122;-61
2022/06/05 12:35:35;;;;;;;65.57;43.13;;;30.30;99.90;;;;;;5092812;28;20039;-62
2022/06/05 12:38:11;;;;;;;82.70;60.97;;;30.30;99.90;;;;;;5091274;28;20032;-62
2022/06/05 12:40:44;;;;;;;52.13;35.75;;;30.20;99.90;;;;;;5093795;28;20027;-62
2022/06/05 12:43:26;;;;;;;50.25;36.53;;;30.10;99.90;;;;;;5091409;28;20020;-62
2022/06/05 12:46:06;;;;;;;54.65;40.30;;;30.00;99.90;;;;;;5093689;28;20012;-62
2022/06/05 12:48:35;;;;;;;55.88;40.10;;;29.80;99.90;;;;;;5090111;28;20040;-63
2022/06/05 12:51:14;;;;;;;51.50;39.47;;;29.70;99.90;;;;;;5087825;28;20591;-63
2022/06/05 12:53:59;;;;;;;77.72;58.97;;;29.70;99.90;;;;;;5091794;28;20488;-63
2022/06/05 12:56:59;;;;;;;57.90;36.60;;;29.60;99.90;;;;;;5089129;28;20423;-62
2022/06/05 12:59:40;;;;;;;45.15;31.08;;;29.60;99.90;;;;;;5083367;28;20036;-58
2022/06/05 13:02:36;;;;;;;42.30;28.48;;;29.60;99.90;;;;;;5094291;28;20590;-63
2022/06/05 13:05:39;;;;;;;44.13;30.63;;;29.60;99.90;;;;;;5091041;28;20161;-63
2022/06/05 13:08:21;;;;;;;36.60;26.75;;;29.60;99.90;;;;;;5094383;28;20107;-64
2022/06/05 13:10:53;;;;;;;;;;;29.60;99.90;;;;;;5092296;28;20111;-63
2022/06/05 13:13:42;;;;;;;57.45;46.95;;;29.60;99.90;;;;;;5086337;28;19912;-62
2022/06/05 13:16:30;;;;;;;52.72;37.65;;;29.50;99.90;;;;;;5093973;28;20071;-63
2022/06/05 13:19:28;;;;;;;53.83;35.53;;;29.40;99.90;;;;;;5082687;28;20101;-64
2022/06/05 13:22:44;;;;;;;65.45;47.13;;;29.40;99.90;;;;;;5084030;28;20095;-65
2022/06/05 13:25:14;;;;;;;76.43;57.50;;;29.30;99.90;;;;;;4980401;28;20019;-63
2022/06/05 13:27:58;;;;;;;66.07;49.15;;;29.50;99.90;;;;;;5082861;28;20032;-64
2022/06/05 13:30:31;;;;;;;72.25;48.33;;;29.50;99.90;;;;;;5091765;28;20016;-63